Главная страница
METAR-TAF:

METAR-TAF

Аэропорты :

Cape Parry, Северо-Западные Территории, Канада

широта: 70-06N, долгота: 124-43W, высота над уровнем моря: 87 м

Текущие метеонаблюдения

Эта сводка был подготовлена 39 минут назад, в 04:00 UTC
Ветер 7 Узел от восточный
Температура -12°C
Влажность 92%
Давление 1014 hPa

METAR: CZCP 270400Z AUTO 10007KT ////SM //// NCD M12/M13 A2994

Время: 22:39 (04:39 UTC)


TAF: отсутствует

Метеонаблюдения и прогнозы для более 4000 аэропортов (сводки METAR и TAF).

Имеющиеся станции представлены на карте желтыми и красными точками.

Чтобы увидеть название станции, наведите на нее мышь.

Затем щелкните, чтобы увидеть метеонаблюдения и метеопрогнозы.

Управление картой: чтобы увеличить масштаб, щелкните зеленые кнопки с черным крестиком; чтобы уменьшить масштаб, щелкните зеленую кнопку с тире; для просмотра соседних карт щелкайте зеленые стрелки.


METAR-TAF: